Terminal Aerodrome Forecast
Issued by NWS

Home | Current Version | Previous Version | Text Only | Print | Product List | Glossary On
Versions: 1 2 3 4 5 6 7 8 9 10 11 12 13 14 15 16 17 18 19 20 21 22 23 24 25 26
000
FTUS41 KRLX 230200 AAA
TAFCKB
TAF AMD
KCKB 230258Z 2303/2324 32003KT P6SM FEW045
     FM230600 00000KT 6SM BR SKC
     FM230800 00000KT 2SM BR SCT005
     FM230900 00000KT 1/2SM FG BKN001
     FM231300 00000KT 3SM BR BKN005
     FM231400 00000KT P6SM SKC=

USA.gov is the U.S. government's official web portal to all federal, state and local government web resources and services.